createdAt,value
2023-03-29T00:01:35.063Z,101030.41
2023-03-29T00:04:04.558Z,101029.47
2023-03-29T00:06:31.237Z,101054.34
2023-03-29T00:08:57.743Z,101054.22
2023-03-29T00:11:24.927Z,101046.63
2023-03-29T00:13:52.032Z,101049.38
2023-03-29T00:16:18.576Z,101060.91
2023-03-29T00:18:45.478Z,101055.59
2023-03-29T00:21:12.208Z,101060.91
2023-03-29T00:23:38.647Z,101053.72
2023-03-29T00:26:07.671Z,101055.44
2023-03-29T00:28:34.614Z,101047.56
2023-03-29T00:31:12.844Z,101045.84
2023-03-29T00:33:40.436Z,101056.44
2023-03-29T00:36:08.304Z,101056.44
2023-03-29T00:38:35.063Z,101048.56
2023-03-29T00:41:02.492Z,101046.78
2023-03-29T00:43:29.274Z,101055.69
2023-03-29T00:45:56.100Z,101050.38
2023-03-29T00:48:26.447Z,101048.50
2023-03-29T00:51:01.142Z,101044.19
2023-03-29T00:53:32.465Z,101043.25
2023-03-29T00:56:09.458Z,101053.50
2023-03-29T00:59:06.658Z,101038.44
2023-03-29T01:01:39.053Z,101048.72
2023-03-29T01:04:11.804Z,101050.53
2023-03-29T01:06:40.183Z,101049.97
2023-03-29T01:09:13.502Z,101052.88
2023-03-29T01:11:45.948Z,101054.84
2023-03-29T01:14:18.812Z,101053.28
2023-03-29T01:16:46.039Z,101058.50
2023-03-29T01:19:18.997Z,101058.72
2023-03-29T01:22:32.680Z,101052.41
2023-03-29T01:25:45.589Z,101056.84
2023-03-29T01:28:37.573Z,101056.00
2023-03-29T01:31:12.897Z,101063.84
2023-03-29T01:33:46.284Z,101061.16
2023-03-29T01:36:18.619Z,101061.69
2023-03-29T01:38:58.402Z,101053.72
2023-03-29T01:41:34.601Z,101063.31
2023-03-29T01:44:17.850Z,101060.81
2023-03-29T01:46:51.912Z,101052.84
2023-03-29T01:49:28.891Z,101056.16
2023-03-29T01:52:01.310Z,101058.00
2023-03-29T01:54:58.112Z,101049.28
2023-03-29T01:57:26.522Z,101044.97
2023-03-29T01:59:55.910Z,101038.66
2023-03-29T02:02:26.466Z,101051.91
2023-03-29T02:04:54.770Z,101040.22
2023-03-29T02:07:25.048Z,101048.38
2023-03-29T02:09:52.929Z,101049.53
2023-03-29T02:12:19.627Z,101043.41
2023-03-29T02:14:46.249Z,101050.69
2023-03-29T02:17:23.064Z,101047.72
2023-03-29T02:19:53.910Z,101042.97
2023-03-29T02:22:29.782Z,101044.69
2023-03-29T02:24:58.535Z,101055.50
2023-03-29T02:27:29.277Z,101050.44
2023-03-29T02:29:56.269Z,101049.03
2023-03-29T02:32:33.910Z,101052.75
2023-03-29T02:35:07.659Z,101054.09
2023-03-29T02:37:37.443Z,101055.91
2023-03-29T02:40:04.707Z,101044.97
2023-03-29T02:42:31.562Z,101046.72
2023-03-29T02:45:00.033Z,101052.00
2023-03-29T02:47:38.378Z,101041.53
2023-03-29T02:50:05.568Z,101051.53
2023-03-29T02:52:37.679Z,101043.75
2023-03-29T02:55:08.341Z,101044.75
2023-03-29T02:57:34.811Z,101048.28
2023-03-29T03:00:01.307Z,101048.28
2023-03-29T03:02:27.981Z,101058.88
2023-03-29T03:04:54.513Z,101042.91
2023-03-29T03:07:21.089Z,101037.75
2023-03-29T03:09:47.578Z,101032.44
2023-03-29T03:12:14.055Z,101033.38
2023-03-29T03:14:40.504Z,101038.84
2023-03-29T03:17:07.017Z,101043.31
2023-03-29T03:19:33.540Z,101041.63
2023-03-29T03:22:00.113Z,101039.09
2023-03-29T03:24:26.624Z,101035.50
2023-03-29T03:26:53.043Z,101032.06
2023-03-29T03:29:19.504Z,101050.59
2023-03-29T03:31:46.038Z,101048.03
2023-03-29T03:34:12.506Z,101045.44
2023-03-29T03:36:38.960Z,101050.59
2023-03-29T03:39:05.462Z,101052.28
2023-03-29T03:41:31.919Z,101043.72
2023-03-29T03:43:58.884Z,101045.69
2023-03-29T03:46:26.696Z,101049.97
2023-03-29T03:48:54.816Z,101049.00
2023-03-29T03:51:21.624Z,101053.41
2023-03-29T03:53:48.093Z,101045.38
2023-03-29T03:56:15.147Z,101055.13
2023-03-29T03:58:41.636Z,101047.50
2023-03-29T04:01:08.093Z,101046.03
2023-03-29T04:03:34.710Z,101049.47
2023-03-29T04:06:02.617Z,101064.59
2023-03-29T04:08:29.235Z,101048.81
2023-03-29T04:10:58.232Z,101062.34
2023-03-29T04:13:26.216Z,101070.34
2023-03-29T04:15:53.072Z,101066.16
2023-03-29T04:18:20.776Z,101067.00
2023-03-29T04:20:47.718Z,101070.81
2023-03-29T04:23:14.960Z,101077.72
2023-03-29T04:25:41.490Z,101076.81
2023-03-29T04:28:08.076Z,101079.34
2023-03-29T04:30:34.549Z,101083.72
2023-03-29T04:33:01.139Z,101085.41
2023-03-29T04:35:27.793Z,101087.09
2023-03-29T04:37:54.259Z,101086.16
2023-03-29T04:40:20.862Z,101086.25
2023-03-29T04:42:47.616Z,101082.00
2023-03-29T04:45:14.772Z,101094.81
2023-03-29T04:47:41.612Z,101088.47
2023-03-29T04:50:08.742Z,101099.03
2023-03-29T04:52:35.301Z,101100.63
2023-03-29T04:55:02.549Z,101099.38
2023-03-29T04:57:29.111Z,101099.28
2023-03-29T04:59:55.778Z,101100.84
2023-03-29T05:02:22.399Z,101101.50
2023-03-29T05:04:48.912Z,101105.66
2023-03-29T05:07:15.494Z,101103.38
2023-03-29T05:09:41.966Z,101104.94
2023-03-29T05:12:08.444Z,101117.84
2023-03-29T05:14:34.937Z,101108.97
2023-03-29T05:17:01.452Z,101113.81
2023-03-29T05:19:28.047Z,101109.94
2023-03-29T05:21:54.538Z,101117.53
2023-03-29T05:24:21.104Z,101112.56
2023-03-29T05:26:47.598Z,101115.78
2023-03-29T05:29:14.156Z,101116.34
2023-03-29T05:31:40.681Z,101123.38
2023-03-29T05:34:07.149Z,101118.59
2023-03-29T05:36:33.800Z,101116.53
2023-03-29T05:39:00.280Z,101111.50
2023-03-29T05:41:26.730Z,101112.59
2023-03-29T05:43:53.339Z,101106.13
2023-03-29T05:46:19.859Z,101114.16
2023-03-29T05:48:46.410Z,101103.19
2023-03-29T05:51:12.915Z,101102.38
2023-03-29T05:53:39.366Z,101108.28
2023-03-29T05:56:06.451Z,101113.22
2023-03-29T05:58:32.909Z,101116.53
2023-03-29T06:00:59.458Z,101112.38
2023-03-29T06:03:26.098Z,101115.38
2023-03-29T06:05:59.444Z,101119.59
2023-03-29T06:08:26.433Z,101114.59
2023-03-29T06:11:03.821Z,101118.94
2023-03-29T06:13:32.409Z,101137.47
2023-03-29T06:15:59.260Z,101133.22
2023-03-29T06:18:25.847Z,101124.09
2023-03-29T06:20:53.247Z,101127.53
2023-03-29T06:23:21.565Z,101134.47
2023-03-29T06:25:48.740Z,101129.50
2023-03-29T06:28:15.455Z,101119.75
2023-03-29T06:30:42.057Z,101121.97
2023-03-29T06:33:09.508Z,101128.28
2023-03-29T06:35:36.839Z,101112.88
2023-03-29T06:38:03.943Z,101121.25
2023-03-29T06:40:31.324Z,101126.34
2023-03-29T06:42:58.156Z,101133.59
2023-03-29T06:45:27.418Z,101129.84
2023-03-29T06:47:55.426Z,101136.72
2023-03-29T06:50:22.014Z,101129.94
2023-03-29T06:52:48.616Z,101128.22
2023-03-29T06:55:15.400Z,101131.13
2023-03-29T06:57:42.389Z,101127.16
2023-03-29T07:00:10.168Z,101129.91
2023-03-29T07:02:36.902Z,101134.75
2023-03-29T07:05:03.561Z,101142.25
2023-03-29T07:07:30.022Z,101130.13
2023-03-29T07:09:56.459Z,101133.63
2023-03-29T07:12:23.332Z,101135.41
2023-03-29T07:14:49.795Z,101140.25
2023-03-29T07:17:16.345Z,101146.56
2023-03-29T07:19:42.773Z,101142.34
2023-03-29T07:22:09.266Z,101148.19
2023-03-29T07:24:35.732Z,101156.66
2023-03-29T07:27:04.467Z,101149.56
2023-03-29T07:29:32.222Z,101156.72
2023-03-29T07:31:58.628Z,101151.41
2023-03-29T07:34:25.074Z,101146.03
2023-03-29T07:36:51.588Z,101161.19
2023-03-29T07:39:18.144Z,101167.47
2023-03-29T07:41:44.616Z,101160.25
2023-03-29T07:44:11.098Z,101167.91
2023-03-29T07:46:37.574Z,101165.03
2023-03-29T07:49:04.430Z,101169.81
2023-03-29T07:51:30.885Z,101160.41
2023-03-29T07:53:57.337Z,101168.47
2023-03-29T07:56:23.841Z,101169.19
2023-03-29T07:58:50.323Z,101163.00
2023-03-29T08:01:19.345Z,101174.31
2023-03-29T08:03:46.167Z,101165.28
2023-03-29T08:06:12.643Z,101161.28
2023-03-29T08:08:39.175Z,101166.03
2023-03-29T08:11:05.850Z,101169.88
2023-03-29T08:13:32.303Z,101173.53
2023-03-29T08:15:58.747Z,101170.53
2023-03-29T08:18:25.213Z,101166.72
2023-03-29T08:20:51.661Z,101168.97
2023-03-29T08:23:18.142Z,101164.69
2023-03-29T08:25:46.320Z,101166.03
2023-03-29T08:28:12.964Z,101165.41
2023-03-29T08:30:39.482Z,101169.63
2023-03-29T08:33:06.031Z,101165.50
2023-03-29T08:35:32.584Z,101166.25
2023-03-29T08:37:59.082Z,101159.44
2023-03-29T08:40:28.594Z,101156.19
2023-03-29T08:42:58.052Z,101166.22
2023-03-29T08:45:56.973Z,101168.13
2023-03-29T08:48:31.703Z,101162.34
2023-03-29T08:51:03.954Z,101161.97
2023-03-29T08:53:43.458Z,101155.69
2023-03-29T08:56:18.148Z,101161.59
2023-03-29T08:58:45.825Z,101161.47
2023-03-29T09:01:12.737Z,101158.38
2023-03-29T09:03:47.084Z,101157.91
2023-03-29T09:06:14.603Z,101153.78
2023-03-29T09:08:44.958Z,101169.50
2023-03-29T09:11:17.278Z,101149.78
2023-03-29T09:13:58.992Z,101153.34
2023-03-29T09:16:31.431Z,101161.34
2023-03-29T09:19:16.424Z,101154.66
2023-03-29T09:21:58.982Z,101148.03
2023-03-29T09:24:51.402Z,101150.13
2023-03-29T09:27:28.467Z,101142.66
2023-03-29T09:30:25.704Z,101149.16
2023-03-29T09:33:21.102Z,101147.66
2023-03-29T09:36:06.009Z,101135.81
2023-03-29T09:38:36.976Z,101126.28
2023-03-29T09:41:19.496Z,101127.81
2023-03-29T09:43:48.588Z,101129.50
2023-03-29T09:46:42.026Z,101131.13
2023-03-29T09:49:16.023Z,101131.25
2023-03-29T09:51:47.445Z,101128.28
2023-03-29T09:54:13.987Z,101116.06
2023-03-29T09:56:40.960Z,101109.19
2023-03-29T09:59:11.412Z,101115.63
2023-03-29T10:01:41.090Z,101110.75
2023-03-29T10:04:09.372Z,101100.47
2023-03-29T10:06:36.336Z,101106.72
2023-03-29T10:09:03.709Z,101112.66
2023-03-29T10:11:33.120Z,101100.03
2023-03-29T10:14:13.816Z,101096.97
2023-03-29T10:16:42.714Z,101095.59
2023-03-29T10:19:30.534Z,101092.03
2023-03-29T10:22:00.608Z,101094.41
2023-03-29T10:24:27.948Z,101077.25
2023-03-29T10:26:59.914Z,101091.41
2023-03-29T10:29:27.194Z,101082.25
2023-03-29T10:31:54.312Z,101084.63
2023-03-29T10:34:22.529Z,101083.28
2023-03-29T10:37:00.203Z,101077.47
2023-03-29T10:39:33.954Z,101079.19
2023-03-29T10:42:04.009Z,101081.41
2023-03-29T10:44:34.426Z,101081.97
2023-03-29T10:47:18.438Z,101069.47
2023-03-29T10:50:05.808Z,101085.47
2023-03-29T10:52:33.209Z,101081.81
2023-03-29T10:54:59.770Z,101080.47
2023-03-29T10:57:50.755Z,101076.94
2023-03-29T11:00:39.944Z,101060.97
2023-03-29T11:03:25.001Z,101072.31
2023-03-29T11:06:33.772Z,101062.09
2023-03-29T11:09:06.676Z,101070.97
2023-03-29T11:11:47.061Z,101061.53
2023-03-29T11:14:28.623Z,101058.72
2023-03-29T11:17:04.115Z,101050.00
2023-03-29T11:19:45.832Z,101055.38
2023-03-29T11:22:30.822Z,101050.63
2023-03-29T11:25:11.554Z,101044.22
2023-03-29T11:27:43.634Z,101043.22
2023-03-29T11:30:22.848Z,101033.81
2023-03-29T11:33:20.151Z,101031.63
2023-03-29T11:36:02.957Z,101039.34
2023-03-29T11:38:35.871Z,101030.50
2023-03-29T11:41:32.024Z,101026.34
2023-03-29T11:44:26.495Z,101022.97
2023-03-29T11:47:00.213Z,101011.03
2023-03-29T11:49:30.707Z,101024.41
2023-03-29T11:52:01.491Z,101024.50
2023-03-29T11:54:33.884Z,101016.81
2023-03-29T11:57:11.436Z,101024.13
2023-03-29T11:59:45.380Z,101025.31
2023-03-29T12:02:16.714Z,101014.91
2023-03-29T12:04:48.590Z,101017.91
2023-03-29T12:07:30.568Z,101017.50
2023-03-29T12:10:09.545Z,101014.53
2023-03-29T12:12:44.891Z,101030.75
2023-03-29T12:15:21.211Z,101016.50
2023-03-29T12:18:07.081Z,101007.81
2023-03-29T12:20:37.846Z,101008.31
2023-03-29T12:23:07.159Z,101006.16
2023-03-29T12:25:50.450Z,101017.38
2023-03-29T12:28:31.773Z,101013.31
2023-03-29T12:31:16.678Z,101018.53
2023-03-29T12:34:15.956Z,101008.50
2023-03-29T12:36:48.875Z,101006.91
2023-03-29T12:39:17.080Z,101022.59
2023-03-29T12:41:43.767Z,101014.72
2023-03-29T12:44:15.989Z,101014.72
2023-03-29T12:46:43.464Z,101011.78
2023-03-29T12:49:25.182Z,100994.00
2023-03-29T12:51:51.738Z,100999.56
2023-03-29T12:54:22.841Z,100983.75
2023-03-29T12:56:52.188Z,101004.69
2023-03-29T12:59:52.844Z,100992.03
2023-03-29T13:02:19.309Z,101003.38
2023-03-29T13:04:50.741Z,101002.75
2023-03-29T13:07:23.073Z,100999.53
2023-03-29T13:09:53.549Z,101001.72
2023-03-29T13:12:35.414Z,101009.06
2023-03-29T13:15:23.444Z,100997.72
2023-03-29T13:18:06.024Z,100996.28
2023-03-29T13:20:56.391Z,100994.75
2023-03-29T13:23:43.129Z,100999.34
2023-03-29T13:26:47.384Z,100998.38
2023-03-29T13:29:19.898Z,100996.22
2023-03-29T13:31:46.413Z,100995.59
2023-03-29T13:34:21.456Z,100986.94
2023-03-29T13:36:50.884Z,100988.78
2023-03-29T13:39:24.471Z,100987.25
2023-03-29T13:41:53.486Z,100980.69
2023-03-29T13:44:22.650Z,100982.78
2023-03-29T13:47:05.559Z,100971.06
2023-03-29T13:49:34.257Z,100984.50
2023-03-29T13:52:19.728Z,100974.28
2023-03-29T13:54:55.984Z,100972.47
2023-03-29T13:57:36.057Z,100961.56
2023-03-29T14:00:10.762Z,100969.94
2023-03-29T14:02:37.293Z,100964.88
2023-03-29T14:05:07.883Z,100977.97
2023-03-29T14:07:39.258Z,100979.88
2023-03-29T14:10:06.714Z,100989.00
2023-03-29T14:12:38.345Z,100979.25
2023-03-29T14:15:07.567Z,100983.34
2023-03-29T14:17:36.202Z,100979.63
2023-03-29T14:20:02.912Z,100975.94
2023-03-29T14:22:32.816Z,100975.47
2023-03-29T14:25:05.649Z,100979.38
2023-03-29T14:27:35.777Z,100972.09
2023-03-29T14:30:02.276Z,100981.25
2023-03-29T14:32:31.092Z,100972.63
2023-03-29T14:34:57.861Z,100973.22
2023-03-29T14:37:29.771Z,100977.28
2023-03-29T14:39:58.636Z,100979.38
2023-03-29T14:42:27.939Z,100975.44
2023-03-29T14:45:07.066Z,100976.88
2023-03-29T14:47:34.195Z,100977.13
2023-03-29T14:50:01.002Z,100978.75
2023-03-29T14:52:30.114Z,100980.22
2023-03-29T14:54:59.943Z,100976.63
2023-03-29T14:57:32.314Z,100970.63
2023-03-29T15:00:01.054Z,100966.16
2023-03-29T15:02:32.827Z,100970.94
2023-03-29T15:05:01.781Z,100965.78
2023-03-29T15:07:28.779Z,100970.94
2023-03-29T15:09:57.463Z,100973.13
2023-03-29T15:12:24.640Z,100977.81
2023-03-29T15:14:51.876Z,100978.66
2023-03-29T15:17:24.117Z,100975.84
2023-03-29T15:19:59.480Z,100980.22
2023-03-29T15:22:35.298Z,100981.44
2023-03-29T15:25:01.949Z,100972.16
2023-03-29T15:27:39.507Z,100971.97
2023-03-29T15:30:13.219Z,100965.63
2023-03-29T15:32:39.841Z,100976.97
2023-03-29T15:35:09.222Z,100978.19
2023-03-29T15:37:36.287Z,100963.91
2023-03-29T15:40:03.037Z,100968.03
2023-03-29T15:42:29.499Z,100974.03
2023-03-29T15:44:56.217Z,100963.19
2023-03-29T15:47:23.052Z,100967.91
2023-03-29T15:49:49.717Z,100967.94
2023-03-29T15:52:16.146Z,100970.63
2023-03-29T15:54:42.632Z,100973.34
2023-03-29T15:57:14.073Z,100973.34
2023-03-29T15:59:40.727Z,100973.44
2023-03-29T16:02:12.026Z,100966.97
2023-03-29T16:04:38.551Z,100968.84
2023-03-29T16:07:10.348Z,100967.75
2023-03-29T16:09:36.889Z,100972.47
2023-03-29T16:12:03.530Z,100974.31
2023-03-29T16:14:31.268Z,100975.84
2023-03-29T16:17:00.347Z,100977.66
2023-03-29T16:19:29.092Z,100980.47
2023-03-29T16:21:56.544Z,100979.38
2023-03-29T16:24:26.317Z,100977.28
2023-03-29T16:26:55.725Z,100975.03
2023-03-29T16:29:23.885Z,100987.94
2023-03-29T16:31:51.762Z,100983.19
2023-03-29T16:34:19.089Z,100983.03
2023-03-29T16:36:46.219Z,100991.75
2023-03-29T16:39:12.841Z,100984.81
2023-03-29T16:41:40.917Z,100993.34
2023-03-29T16:44:07.761Z,100985.44
2023-03-29T16:46:34.381Z,100992.41
2023-03-29T16:49:00.909Z,100994.84
2023-03-29T16:51:27.338Z,100999.22
2023-03-29T16:53:53.856Z,100996.31
2023-03-29T16:56:20.304Z,101000.28
2023-03-29T16:58:46.746Z,101006.44
2023-03-29T17:01:16.696Z,101011.47
2023-03-29T17:03:44.062Z,101003.09
2023-03-29T17:06:11.152Z,101007.09
2023-03-29T17:08:38.770Z,101001.34
2023-03-29T17:11:06.285Z,101002.84
2023-03-29T17:13:33.290Z,101013.91
2023-03-29T17:15:59.780Z,101012.47
2023-03-29T17:18:27.255Z,101015.72
2023-03-29T17:20:57.505Z,101019.19
2023-03-29T17:23:24.628Z,101016.06
2023-03-29T17:25:51.359Z,101019.03
2023-03-29T17:28:17.855Z,101021.75
2023-03-29T17:30:45.592Z,101033.56
2023-03-29T17:33:12.198Z,101027.50
2023-03-29T17:35:41.799Z,101025.19
2023-03-29T17:38:08.664Z,101025.09
2023-03-29T17:40:35.282Z,101022.50
2023-03-29T17:43:01.853Z,101033.31
2023-03-29T17:45:28.358Z,101034.28
2023-03-29T17:47:54.855Z,101027.34
2023-03-29T17:50:21.396Z,101028.13
2023-03-29T17:52:47.900Z,101032.81
2023-03-29T17:55:14.438Z,101034.06
2023-03-29T17:57:42.084Z,101031.47
2023-03-29T18:00:11.876Z,101044.91
2023-03-29T18:02:39.793Z,101050.28
2023-03-29T18:05:07.524Z,101045.09
2023-03-29T18:07:34.008Z,101047.19
2023-03-29T18:10:00.440Z,101051.59
2023-03-29T18:12:27.743Z,101050.03
2023-03-29T18:14:54.972Z,101057.66
2023-03-29T18:17:21.500Z,101053.78
2023-03-29T18:19:48.072Z,101054.31
2023-03-29T18:22:14.598Z,101068.16
2023-03-29T18:24:41.076Z,101058.94
2023-03-29T18:27:07.524Z,101054.94
2023-03-29T18:29:34.008Z,101060.56
2023-03-29T18:32:00.498Z,101065.31
2023-03-29T18:34:27.055Z,101067.41
2023-03-29T18:36:53.531Z,101072.25
2023-03-29T18:39:19.999Z,101080.28
2023-03-29T18:41:46.435Z,101069.69
2023-03-29T18:44:12.887Z,101076.47
2023-03-29T18:46:39.820Z,101073.16
2023-03-29T18:49:06.769Z,101074.97
2023-03-29T18:51:33.883Z,101080.50
2023-03-29T18:54:00.992Z,101069.56
2023-03-29T18:56:27.947Z,101078.00
2023-03-29T18:58:54.745Z,101072.19
2023-03-29T19:01:21.282Z,101079.28
2023-03-29T19:03:47.983Z,101085.78
2023-03-29T19:06:14.969Z,101083.19
2023-03-29T19:08:42.038Z,101085.94
2023-03-29T19:11:10.728Z,101081.75
2023-03-29T19:13:37.329Z,101082.78
2023-03-29T19:16:04.251Z,101091.84
2023-03-29T19:18:31.103Z,101088.16
2023-03-29T19:20:57.645Z,101094.13
2023-03-29T19:23:25.634Z,101084.59
2023-03-29T19:26:01.723Z,101088.16
2023-03-29T19:28:28.892Z,101088.75
2023-03-29T19:30:56.528Z,101084.34
2023-03-29T19:33:23.078Z,101084.19
2023-03-29T19:35:50.885Z,101090.44
2023-03-29T19:38:20.994Z,101082.09
2023-03-29T19:40:49.077Z,101071.72
2023-03-29T19:43:15.703Z,101080.50
2023-03-29T19:45:46.897Z,101072.53
2023-03-29T19:48:21.753Z,101095.56
2023-03-29T19:50:49.862Z,101094.53
2023-03-29T19:53:16.349Z,101095.56
2023-03-29T19:55:43.762Z,101102.41
2023-03-29T19:58:10.205Z,101113.16
2023-03-29T20:00:36.815Z,101102.81
2023-03-29T20:03:03.317Z,101108.97
2023-03-29T20:05:29.813Z,101114.56
2023-03-29T20:07:56.281Z,101108.91
2023-03-29T20:10:22.724Z,101109.06
2023-03-29T20:12:49.215Z,101109.44
2023-03-29T20:15:15.737Z,101114.28
2023-03-29T20:17:42.273Z,101108.56
2023-03-29T20:20:09.854Z,101111.38
2023-03-29T20:22:37.755Z,101110.22
2023-03-29T20:25:05.057Z,101104.63
2023-03-29T20:27:31.497Z,101095.88
2023-03-29T20:29:57.991Z,101090.00
2023-03-29T20:32:24.441Z,101096.81
2023-03-29T20:34:50.901Z,101083.34
2023-03-29T20:37:17.488Z,101086.72
2023-03-29T20:39:43.923Z,101085.84
2023-03-29T20:42:10.373Z,101077.81
2023-03-29T20:44:36.888Z,101075.38
2023-03-29T20:47:03.341Z,101076.59
2023-03-29T20:49:33.973Z,101077.63
2023-03-29T20:52:00.423Z,101074.50
2023-03-29T20:54:26.928Z,101076.88
2023-03-29T20:56:53.411Z,101083.19
2023-03-29T20:59:19.985Z,101081.53
2023-03-29T21:01:46.506Z,101079.88
2023-03-29T21:04:13.078Z,101077.34
2023-03-29T21:06:39.584Z,101074.75
2023-03-29T21:09:06.077Z,101075.66
2023-03-29T21:11:32.584Z,101082.19
2023-03-29T21:13:59.105Z,101076.91
2023-03-29T21:16:25.737Z,101077.56
2023-03-29T21:18:53.113Z,101077.56
2023-03-29T21:21:19.602Z,101070.34
2023-03-29T21:23:46.073Z,101078.56
2023-03-29T21:26:12.595Z,101076.91
2023-03-29T21:28:39.096Z,101075.72
2023-03-29T21:31:06.555Z,101082.91
2023-03-29T21:33:33.570Z,101077.84
2023-03-29T21:36:00.320Z,101077.16
2023-03-29T21:38:27.126Z,101079.91
2023-03-29T21:40:53.668Z,101078.25
2023-03-29T21:43:20.237Z,101077.22
2023-03-29T21:45:50.343Z,101076.44
2023-03-29T21:48:17.630Z,101074.63
2023-03-29T21:50:44.119Z,101081.66
2023-03-29T21:53:10.617Z,101067.53
2023-03-29T21:55:37.112Z,101071.16
2023-03-29T21:58:04.740Z,101072.91
2023-03-29T22:00:31.506Z,101073.78
2023-03-29T22:02:58.042Z,101079.28
2023-03-29T22:05:24.690Z,101070.47
2023-03-29T22:07:51.108Z,101068.94
2023-03-29T22:10:17.690Z,101068.94
2023-03-29T22:12:44.188Z,101070.81
2023-03-29T22:15:11.074Z,101070.97
2023-03-29T22:17:37.886Z,101067.75
2023-03-29T22:20:04.915Z,101057.59
2023-03-29T22:22:31.376Z,101065.47
2023-03-29T22:24:57.778Z,101065.94
2023-03-29T22:27:24.245Z,101058.78
2023-03-29T22:29:50.723Z,101059.66
2023-03-29T22:32:17.193Z,101062.50
2023-03-29T22:34:43.648Z,101060.91
2023-03-29T22:37:10.148Z,101062.31
2023-03-29T22:39:36.937Z,101057.28
2023-03-29T22:42:03.620Z,101072.47
2023-03-29T22:44:30.262Z,101068.44
2023-03-29T22:46:56.754Z,101065.00
2023-03-29T22:49:23.264Z,101068.06
2023-03-29T22:51:49.738Z,101073.28
2023-03-29T22:54:16.197Z,101069.94
2023-03-29T22:56:42.764Z,101070.09
2023-03-29T22:59:09.291Z,101076.53
2023-03-29T23:01:35.862Z,101078.78
2023-03-29T23:04:02.459Z,101082.81
2023-03-29T23:06:28.936Z,101078.81
2023-03-29T23:08:55.417Z,101078.75
2023-03-29T23:11:21.957Z,101069.78
2023-03-29T23:13:48.394Z,101069.78
2023-03-29T23:16:15.724Z,101059.72
2023-03-29T23:18:42.259Z,101064.69
2023-03-29T23:21:08.751Z,101056.06
2023-03-29T23:23:35.485Z,101058.53
2023-03-29T23:26:02.325Z,101059.16
2023-03-29T23:28:29.532Z,101064.28
2023-03-29T23:30:57.403Z,101060.53
2023-03-29T23:33:24.939Z,101059.13
2023-03-29T23:35:51.336Z,101060.72
2023-03-29T23:38:17.822Z,101073.78
2023-03-29T23:40:44.326Z,101064.91
2023-03-29T23:43:10.848Z,101066.63
2023-03-29T23:45:37.318Z,101071.19
2023-03-29T23:48:03.926Z,101068.50
2023-03-29T23:50:30.431Z,101069.47
2023-03-29T23:52:56.886Z,101069.47
2023-03-29T23:55:23.329Z,101074.25
2023-03-29T23:57:49.802Z,101073.13
